Time;durP1;ratioP1;P1;durP2;ratioP2;P2;SDS_P1;SDS_P2;PMS_P1;PMS_P2;Temp;Humidity;BMP_temperature;BMP_pressure;BME280_temperature;BME280_humidity;BME280_pressure;Samples;Min_cycle;Max_cycle;Signal;HPM_P1;HPM_P2
2021/11/30 00:01:02;;;;;;;6.10;5.07;;;;;;;;;;5127132;27;20742;-79
2021/11/30 00:03:30;;;;;;;8.43;5.75;;;;;;;;;;5126798;27;20308;-79
2021/11/30 00:06:00;;;;;;;6.13;5.53;;;1.30;99.90;;;;;;5121682;27;20296;-79
2021/11/30 00:08:30;;;;;;;7.50;5.57;;;;;;;;;;5127693;27;20194;-79
2021/11/30 00:10:59;;;;;;;6.22;5.30;;;1.40;99.90;;;;;;5104011;28;20280;-79
2021/11/30 00:13:28;;;;;;;9.02;5.35;;;1.00;99.90;;;;;;5121984;27;20309;-78
2021/11/30 00:15:56;;;;;;;8.77;5.45;;;;;;;;;;5109904;27;20296;-79
2021/11/30 00:18:24;;;;;;;11.10;6.45;;;;;;;;;;5108172;28;20747;-79
2021/11/30 00:20:52;;;;;;;12.48;6.20;;;1.40;99.90;;;;;;5106687;28;20241;-79
2021/11/30 00:23:19;;;;;;;6.97;5.07;;;;;;;;;;5107748;28;20198;-78
2021/11/30 00:25:47;;;;;;;8.45;5.13;;;;;;;;;;5106608;28;20270;-79
2021/11/30 00:28:14;;;;;;;6.35;4.55;;;;;;;;;;5106974;28;20252;-79
2021/11/30 00:30:41;;;;;;;5.15;4.65;;;;;;;;;;5106185;28;20300;-79
2021/11/30 00:33:10;;;;;;;7.40;4.70;;;;;;;;;;5112431;27;20277;-78
2021/11/30 00:35:39;;;;;;;4.78;4.28;;;1.30;99.90;;;;;;5119157;27;20271;-79
2021/11/30 00:38:07;;;;;;;5.20;4.40;;;;;;;;;;5126626;27;20294;-79
2021/11/30 00:40:36;;;;;;;4.45;4.10;;;;;;;;;;5113453;27;20229;-78
2021/11/30 00:43:04;;;;;;;4.90;3.83;;;;;;;;;;5118332;27;20265;-79
2021/11/30 00:45:38;;;;;;;9.45;4.43;;;;;;;;;;5107510;27;20300;-79
2021/11/30 00:48:09;;;;;;;4.40;4.00;;;;;;;;;;5108702;28;20194;-79
2021/11/30 00:50:39;;;;;;;4.35;3.95;;;1.20;99.90;;;;;;5108915;27;20193;-79
2021/11/30 00:53:08;;;;;;;6.72;4.47;;;;;;;;;;5128007;27;20229;-79
2021/11/30 00:55:35;;;;;;;3.45;3.15;;;;;;;;;;5124598;27;20230;-79
2021/11/30 00:58:02;;;;;;;4.07;3.65;;;;;;;;;;5125915;27;20194;-79
2021/11/30 01:00:32;;;;;;;6.65;4.63;;;;;;;;;;5120772;28;20236;-79
2021/11/30 01:02:59;;;;;;;6.68;3.65;;;;;;;;;;5119911;28;20198;-79
2021/11/30 01:05:26;;;;;;;7.32;3.70;;;;;;;;;;5107900;28;20649;-79
2021/11/30 01:07:54;;;;;;;4.80;4.15;;;;;;;;;;5102960;28;20303;-79
2021/11/30 01:10:22;;;;;;;5.55;4.32;;;;;;;;;;5122543;27;20208;-79
2021/11/30 01:12:50;;;;;;;4.80;3.45;;;;;;;;;;5125789;28;20669;-79
2021/11/30 01:15:20;;;;;;;5.65;3.90;;;1.20;99.90;;;;;;5112357;28;20226;-79
2021/11/30 01:17:48;;;;;;;3.70;3.22;;;1.30;99.90;;;;;;5107673;28;20195;-79
2021/11/30 01:20:15;;;;;;;4.13;3.83;;;;;;;;;;5121148;27;20304;-79
2021/11/30 01:22:43;;;;;;;4.78;4.10;;;1.20;99.90;;;;;;5127876;27;20289;-79
2021/11/30 01:25:10;;;;;;;6.63;4.60;;;;;;;;;;5125442;28;20260;-79
2021/11/30 01:27:39;;;;;;;3.92;3.20;;;;;;;;;;5125934;28;20288;-79
2021/11/30 01:30:09;;;;;;;5.80;4.88;;;1.30;99.90;;;;;;5107580;28;20202;-79
2021/11/30 01:32:36;;;;;;;5.88;3.80;;;;;;;;;;5106386;28;20256;-79
2021/11/30 01:35:03;;;;;;;4.20;3.75;;;;;;;;;;5121141;28;20222;-79
2021/11/30 01:37:31;;;;;;;6.63;3.28;;;;;;;;;;5107432;28;20198;-79
2021/11/30 01:39:58;;;;;;;4.07;3.13;;;;;;;;;;5123305;27;20198;-79
2021/11/30 01:42:26;;;;;;;3.28;2.92;;;;;;;;;;5130744;27;20634;-79
2021/11/30 01:44:57;;;;;;;3.53;3.22;;;1.30;99.90;;;;;;5118695;27;20246;-79
2021/11/30 01:47:40;;;;;;;4.40;3.78;;;;;;;;;;5112951;27;20203;-79
2021/11/30 01:50:10;;;;;;;3.38;3.05;;;1.40;99.90;;;;;;5126861;27;20201;-79
2021/11/30 01:52:38;;;;;;;2.67;2.47;;;;;;;;;;5143049;27;20548;-79
2021/11/30 01:55:06;;;;;;;4.40;3.22;;;1.30;99.90;;;;;;5123541;27;20268;-79
2021/11/30 01:57:34;;;;;;;3.72;3.00;;;;;;;;;;5111179;27;20272;-79
2021/11/30 02:00:02;;;;;;;4.13;3.00;;;1.40;99.90;;;;;;5126434;27;20268;-79
2021/11/30 02:02:29;;;;;;;3.97;2.60;;;;;;;;;;5128832;27;20202;-79
2021/11/30 02:04:56;;;;;;;3.50;2.60;;;;;;;;;;5123076;27;20299;-79
2021/11/30 02:07:25;;;;;;;4.85;3.30;;;;;;;;;;5116491;27;20244;-79
2021/11/30 02:09:53;;;;;;;4.70;3.17;;;;;;;;;;5123401;27;20932;-79
2021/11/30 02:12:22;;;;;;;3.35;3.05;;;;;;;;;;5128724;27;20289;-79
2021/11/30 02:14:52;;;;;;;3.75;2.55;;;;;;;;;;5118541;27;20194;-79
2021/11/30 02:17:20;;;;;;;3.10;2.90;;;;;;;;;;5111556;27;20282;-79
2021/11/30 02:19:55;;;;;;;4.22;3.10;;;;;;;;;;5129312;27;20659;-79
2021/11/30 02:22:24;;;;;;;4.32;2.30;;;;;;;;;;5128742;27;20209;-79
2021/11/30 02:24:52;;;;;;;5.20;3.20;;;;;;;;;;5117626;27;20706;-79
2021/11/30 02:27:22;;;;;;;6.40;2.97;;;1.10;99.90;;;;;;5118258;27;20199;-79
2021/11/30 02:29:50;;;;;;;3.65;3.35;;;;;;;;;;5112707;27;20186;-79
2021/11/30 02:32:19;;;;;;;5.97;3.63;;;;;;;;;;5128167;27;20201;-79
2021/11/30 02:34:47;;;;;;;4.00;2.85;;;;;;;;;;5126332;27;20189;-78
2021/11/30 02:37:22;;;;;;;3.58;2.72;;;;;;;;;;5130196;27;20202;-79
2021/11/30 02:39:50;;;;;;;4.13;2.85;;;;;;;;;;5110144;28;20244;-79
2021/11/30 02:42:17;;;;;;;4.70;3.58;;;;;;;;;;5109868;28;20249;-79
2021/11/30 02:44:44;;;;;;;3.20;2.75;;;;;;;;;;5109933;28;20579;-79
2021/11/30 02:47:13;;;;;;;2.75;2.55;;;1.20;99.90;;;;;;5108141;28;20194;-78
2021/11/30 02:49:42;;;;;;;3.83;2.80;;;1.20;99.90;;;;;;5109381;27;20194;-78
2021/11/30 02:52:11;;;;;;;2.40;2.20;;;1.20;99.90;;;;;;5110957;27;20280;-79
2021/11/30 02:54:42;;;;;;;5.50;2.90;;;1.20;99.90;;;;;;5113264;27;20186;-79
2021/11/30 02:57:11;;;;;;;3.10;2.80;;;1.20;99.90;;;;;;5114430;27;20202;-79
2021/11/30 02:59:40;;;;;;;4.47;3.20;;;1.00;99.90;;;;;;5111174;27;20279;-79
2021/11/30 03:02:12;;;;;;;3.42;2.65;;;;;;;;;;5116827;27;20219;-78
2021/11/30 03:04:40;;;;;;;3.78;2.90;;;;;;;;;;5118216;27;20221;-78
2021/11/30 03:07:11;;;;;;;4.03;2.75;;;1.20;99.90;;;;;;5130029;27;20246;-78
2021/11/30 03:09:40;;;;;;;4.45;3.25;;;1.20;99.90;;;;;;5128680;27;20194;-78
2021/11/30 03:12:08;;;;;;;4.65;2.65;;;1.10;99.90;;;;;;5116291;27;20604;-79
2021/11/30 03:14:36;;;;;;;4.53;2.95;;;;;;;;;;5140475;27;20740;-78
2021/11/30 03:17:04;;;;;;;2.90;2.50;;;1.10;99.90;;;;;;5150292;27;20192;-78
2021/11/30 03:19:31;;;;;;;3.47;2.67;;;;;;;;;;5133113;27;20866;-78
2021/11/30 03:22:00;;;;;;;5.10;3.45;;;1.10;99.90;;;;;;5119968;27;20375;-78
2021/11/30 03:24:27;;;;;;;3.30;2.40;;;1.10;99.90;;;;;;5109900;27;20683;-78
2021/11/30 03:26:56;;;;;;;2.50;2.33;;;;;;;;;;5128876;27;20221;-78
2021/11/30 03:29:23;;;;;;;2.67;2.47;;;;;;;;;;5127578;27;20198;-78
2021/11/30 03:31:58;;;;;;;2.22;1.70;;;;;;;;;;5127819;27;20198;-79
2021/11/30 03:34:24;;;;;;;2.65;2.45;;;;;;;;;;5122000;27;20193;-79
2021/11/30 03:36:52;;;;;;;2.20;1.73;;;1.10;99.90;;;;;;5120091;27;20248;-79
2021/11/30 03:39:22;;;;;;;3.17;2.97;;;1.20;99.90;;;;;;5110048;27;20267;-78
2021/11/30 03:41:52;;;;;;;2.10;1.80;;;1.10;99.90;;;;;;5108156;28;20252;-78
2021/11/30 03:44:21;;;;;;;2.30;2.10;;;;;;;;;;5105592;27;20302;-79
2021/11/30 03:46:49;;;;;;;2.25;2.05;;;;;;;;;;5110462;27;20222;-79
2021/11/30 03:49:16;;;;;;;2.55;2.35;;;1.30;99.90;;;;;;5115890;27;20311;-79
2021/11/30 03:51:44;;;;;;;2.85;2.60;;;1.20;99.90;;;;;;5120717;27;20689;-79
2021/11/30 03:54:12;;;;;;;5.63;2.67;;;;;;;;;;5114248;27;20221;-79
2021/11/30 03:56:39;;;;;;;2.50;2.17;;;;;;;;;;5128484;27;20718;-79
2021/11/30 03:59:06;;;;;;;2.10;1.95;;;;;;;;;;5118470;27;20272;-79
2021/11/30 04:01:34;;;;;;;4.90;2.90;;;1.50;99.90;;;;;;5126147;27;20194;-79
2021/11/30 04:04:04;;;;;;;2.72;2.28;;;;;;;;;;5113867;27;20267;-79
2021/11/30 04:06:31;;;;;;;3.25;2.00;;;;;;;;;;5124722;27;20644;-79
2021/11/30 04:08:58;;;;;;;2.17;2.03;;;;;;;;;;5122790;27;20240;-79
2021/11/30 04:11:25;;;;;;;2.58;2.35;;;;;;;;;;5108333;27;20294;-79
2021/11/30 04:13:52;;;;;;;3.60;3.30;;;;;;;;;;5112481;27;20198;-79
2021/11/30 04:16:20;;;;;;;2.65;2.45;;;;;;;;;;5110323;27;20230;-79
2021/11/30 04:18:48;;;;;;;4.05;3.63;;;1.40;99.90;;;;;;5109557;27;20780;-78
2021/11/30 04:21:15;;;;;;;6.32;3.25;;;;;;;;;;5107412;28;20195;-79
2021/11/30 04:23:42;;;;;;;4.38;3.42;;;;;;;;;;5118786;27;20621;-79
2021/11/30 04:26:09;;;;;;;2.90;2.65;;;;;;;;;;5111697;27;20324;-79
2021/11/30 04:28:38;;;;;;;2.20;2.10;;;;;;;;;;5122224;27;20236;-79
2021/11/30 04:31:05;;;;;;;4.03;2.90;;;;;;;;;;5107893;27;20212;-79
2021/11/30 04:33:32;;;;;;;4.13;3.35;;;;;;;;;;5112964;27;20258;-79
2021/11/30 04:36:01;;;;;;;2.05;1.95;;;1.20;99.90;;;;;;5118433;27;20273;-78
2021/11/30 04:38:28;;;;;;;3.33;3.03;;;;;;;;;;5108911;27;20221;-79
2021/11/30 04:40:55;;;;;;;5.03;2.40;;;;;;;;;;5107885;28;20213;-79
2021/11/30 04:43:22;;;;;;;5.10;2.75;;;;;;;;;;5119914;27;20244;-79
2021/11/30 04:45:56;;;;;;;3.53;2.88;;;;;;;;;;5116433;27;20322;-79
2021/11/30 04:48:24;;;;;;;5.53;2.90;;;;;;;;;;5107565;28;20202;-79
2021/11/30 04:50:53;;;;;;;3.80;2.95;;;;;;;;;;5115267;27;20197;-79
2021/11/30 04:53:22;;;;;;;3.75;3.33;;;;;;;;;;5114480;27;20186;-79
2021/11/30 04:55:51;;;;;;;4.07;3.08;;;1.10;99.90;;;;;;5122563;27;20212;-79
2021/11/30 04:58:19;;;;;;;2.75;2.45;;;1.00;99.90;;;;;;5121683;27;20204;-79
2021/11/30 05:00:47;;;;;;;4.53;4.07;;;;;;;;;;5113673;27;20589;-79
2021/11/30 05:03:14;;;;;;;9.45;3.08;;;;;;;;;;5120092;28;20662;-79
2021/11/30 05:05:42;;;;;;;8.07;2.75;;;;;;;;;;5117641;28;20217;-79
2021/11/30 05:08:10;;;;;;;3.28;2.80;;;;;;;;;;5122889;28;20192;-79
2021/11/30 05:10:38;;;;;;;4.13;2.90;;;1.10;99.90;;;;;;5120760;28;20197;-79
2021/11/30 05:13:06;;;;;;;3.22;2.65;;;;;;;;;;5127895;27;20254;-79
2021/11/30 05:15:33;;;;;;;5.60;3.05;;;0.60;99.90;;;;;;5114415;27;20278;-79
2021/11/30 05:18:00;;;;;;;3.40;3.10;;;;;;;;;;5113184;27;20229;-79
2021/11/30 05:20:27;;;;;;;4.07;3.10;;;;;;;;;;5110148;28;20302;-79
2021/11/30 05:22:55;;;;;;;3.03;2.72;;;;;;;;;;5112458;27;20260;-79
2021/11/30 05:25:22;;;;;;;3.33;3.03;;;;;;;;;;5127429;27;20209;-79
2021/11/30 05:27:51;;;;;;;3.38;3.10;;;-1.70;99.90;;;;;;5120271;27;20221;-79
2021/11/30 05:30:20;;;;;;;5.90;3.08;;;1.00;99.90;;;;;;5116972;27;20206;-79
2021/11/30 05:32:48;;;;;;;3.53;3.22;;;;;;;;;;5127826;27;20266;-79
2021/11/30 05:35:15;;;;;;;4.30;3.28;;;;;;;;;;5130432;27;20217;-78
2021/11/30 05:37:42;;;;;;;3.95;3.55;;;;;;;;;;5114469;27;20666;-79
2021/11/30 05:40:10;;;;;;;4.55;3.50;;;;;;;;;;5127119;27;20282;-80
2021/11/30 05:42:37;;;;;;;5.00;4.20;;;;;;;;;;5118639;27;20218;-80
2021/11/30 05:45:07;;;;;;;4.47;4.03;;;1.10;99.90;;;;;;5130060;27;20213;-80
2021/11/30 05:47:34;;;;;;;3.90;3.55;;;;;;;;;;5125603;27;20205;-80
2021/11/30 05:50:01;;;;;;;4.15;3.67;;;;;;;;;;5111302;27;20710;-80
2021/11/30 05:52:28;;;;;;;4.72;4.18;;;;;;;;;;5115320;27;20683;-79
2021/11/30 05:54:55;;;;;;;3.85;3.42;;;;;;;;;;5111299;28;20199;-80
2021/11/30 05:57:23;;;;;;;5.60;5.03;;;;;;;;;;5119859;27;20301;-80
2021/11/30 05:59:50;;;;;;;6.05;3.35;;;;;;;;;;5112243;27;20703;-80
2021/11/30 06:02:20;;;;;;;3.35;3.05;;;;;;;;;;5114259;27;20237;-80
2021/11/30 06:04:47;;;;;;;6.40;4.38;;;-0.60;99.90;;;;;;5114964;27;20215;-80
2021/11/30 06:07:14;;;;;;;5.15;4.05;;;;;;;;;;5126669;27;20836;-80
2021/11/30 06:09:41;;;;;;;4.68;4.18;;;;;;;;;;5115978;27;20195;-81
2021/11/30 06:12:09;;;;;;;4.40;3.78;;;1.00;99.90;;;;;;5117093;27;20233;-80
2021/11/30 06:14:36;;;;;;;6.10;5.15;;;;;;;;;;5117564;27;20284;-80
2021/11/30 06:17:03;;;;;;;4.50;4.10;;;;;;;;;;5114110;27;20230;-80
2021/11/30 06:19:34;;;;;;;4.97;3.90;;;1.00;99.90;;;;;;5129635;27;20272;-80
2021/11/30 06:22:01;;;;;;;4.25;3.15;;;;;;;;;;5122919;27;20253;-80
2021/11/30 06:24:29;;;;;;;3.92;3.53;;;;;;;;;;5126440;27;20272;-80
2021/11/30 06:26:56;;;;;;;9.10;4.40;;;;;;;;;;5109803;28;20376;-80
2021/11/30 06:29:23;;;;;;;5.20;3.40;;;;;;;;;;5110239;28;20293;-80
2021/11/30 06:31:51;;;;;;;3.83;3.33;;;;;;;;;;5109047;28;20915;-80
2021/11/30 06:34:18;;;;;;;5.28;4.75;;;;;;;;;;5118087;27;20202;-79
2021/11/30 06:36:47;;;;;;;5.88;4.15;;;0.90;99.90;;;;;;5129380;27;20282;-79
2021/11/30 06:39:14;;;;;;;4.22;3.80;;;;;;;;;;5130445;27;20715;-80
2021/11/30 06:41:41;;;;;;;5.95;4.25;;;;;;;;;;5130813;27;20198;-79
2021/11/30 06:44:08;;;;;;;5.85;4.60;;;;;;;;;;5125288;27;20666;-79
2021/11/30 06:46:35;;;;;;;3.67;3.35;;;;;;;;;;5131185;27;20222;-78
2021/11/30 06:49:03;;;;;;;5.78;3.30;;;;;;;;;;5124451;27;20213;-79
2021/11/30 06:51:30;;;;;;;4.03;3.63;;;;;;;;;;5138893;27;20220;-79
2021/11/30 06:53:58;;;;;;;6.05;4.60;;;;;;;;;;5119621;27;20197;-79
2021/11/30 06:56:27;;;;;;;5.30;4.18;;;;;;;;;;5117622;27;20714;-80
2021/11/30 06:58:54;;;;;;;4.75;4.30;;;;;;;;;;5117610;27;20202;-80
2021/11/30 07:01:21;;;;;;;5.57;4.30;;;;;;;;;;5109141;28;20248;-80
2021/11/30 07:03:49;;;;;;;5.50;3.90;;;;;;;;;;5121018;27;20209;-80
2021/11/30 07:06:25;;;;;;;3.95;3.55;;;;;;;;;;5130733;27;20229;-81
2021/11/30 07:08:55;;;;;;;4.93;3.40;;;;;;;;;;5130635;27;20677;-80
2021/11/30 07:11:36;;;;;;;11.20;3.13;;;;;;;;;;5130943;27;20235;-80
2021/11/30 07:14:04;;;;;;;3.58;3.10;;;0.70;99.90;;;;;;5130735;27;20213;-80
2021/11/30 07:16:31;;;;;;;5.35;3.35;;;;;;;;;;5129528;27;20197;-81
2021/11/30 07:18:59;;;;;;;4.28;3.80;;;;;;;;;;5129710;27;20202;-80
2021/11/30 07:21:26;;;;;;;4.78;3.13;;;;;;;;;;5130186;27;20818;-80
2021/11/30 07:23:53;;;;;;;4.20;3.88;;;;;;;;;;5124756;27;20277;-80
2021/11/30 07:26:20;;;;;;;8.85;3.60;;;;;;;;;;5126990;27;20253;-81
2021/11/30 07:28:49;;;;;;;2.95;2.67;;;0.90;99.90;;;;;;5120853;27;20242;-81
2021/11/30 07:31:17;;;;;;;2.42;2.22;;;;;;;;;;5127747;27;20190;-80
2021/11/30 07:33:46;;;;;;;3.95;3.55;;;0.80;99.90;;;;;;5120981;27;20603;-80
2021/11/30 07:36:14;;;;;;;4.28;3.20;;;;;;;;;;5129631;27;20198;-81
2021/11/30 07:38:42;;;;;;;3.92;3.03;;;0.80;99.90;;;;;;5116090;27;20275;-80
2021/11/30 07:41:10;;;;;;;3.35;3.05;;;;;;;;;;5129272;27;20193;-80
2021/11/30 07:43:38;;;;;;;3.70;2.67;;;0.80;99.90;;;;;;5118585;27;20205;-80
2021/11/30 07:46:07;;;;;;;2.38;2.10;;;1.00;99.90;;;;;;5109568;28;20244;-81
2021/11/30 07:48:34;;;;;;;3.03;2.78;;;;;;;;;;5123123;27;20190;-80
2021/11/30 07:51:02;;;;;;;5.43;3.17;;;0.90;99.90;;;;;;5129889;27;20226;-81
2021/11/30 07:53:29;;;;;;;3.47;3.17;;;;;;;;;;5128628;27;20611;-81
2021/11/30 07:56:00;;;;;;;3.95;3.35;;;1.00;99.90;;;;;;5120079;27;20620;-81
2021/11/30 07:58:30;;;;;;;3.67;2.75;;;;;;;;;;5128648;27;20609;-81
2021/11/30 08:00:57;;;;;;;5.13;2.72;;;;;;;;;;5129158;27;20232;-82
2021/11/30 08:03:26;;;;;;;3.30;3.00;;;;;;;;;;5128077;27;20662;-81
2021/11/30 08:05:53;;;;;;;6.63;3.90;;;;;;;;;;5129291;27;20198;-81
2021/11/30 08:08:21;;;;;;;2.95;2.65;;;;;;;;;;5114621;27;20189;-81
2021/11/30 08:10:48;;;;;;;2.67;2.40;;;;;;;;;;5128925;27;20194;-81
2021/11/30 08:13:15;;;;;;;4.93;2.90;;;;;;;;;;5127530;27;20275;-81
2021/11/30 08:15:42;;;;;;;2.72;2.50;;;;;;;;;;5129082;27;20229;-81
2021/11/30 08:18:10;;;;;;;3.10;2.10;;;;;;;;;;5137454;27;20201;-81
2021/11/30 08:20:38;;;;;;;11.35;5.50;;;1.10;99.90;;;;;;5129713;27;20263;-81
2021/11/30 08:23:05;;;;;;;3.60;2.33;;;;;;;;;;5126487;27;20189;-81
2021/11/30 08:25:33;;;;;;;2.70;2.50;;;;;;;;;;5135752;27;20236;-81
2021/11/30 08:28:00;;;;;;;3.17;2.50;;;;;;;;;;5127051;27;20568;-81
2021/11/30 08:30:27;;;;;;;2.97;2.75;;;;;;;;;;5129157;27;20208;-81
2021/11/30 08:32:55;;;;;;;3.60;2.45;;;;;;;;;;5116823;27;20243;-81
2021/11/30 08:35:22;;;;;;;3.13;2.50;;;;;;;;;;5126914;27;20659;-80
2021/11/30 08:37:50;;;;;;;11.10;2.90;;;;;;;;;;5114633;27;20264;-81
2021/11/30 08:40:18;;;;;;;5.80;4.50;;;;;;;;;;5125909;27;20194;-81
2021/11/30 08:42:45;;;;;;;3.13;2.33;;;;;;;;;;5115015;27;20255;-81
2021/11/30 08:45:12;;;;;;;5.00;3.08;;;;;;;;;;5108799;28;20198;-81
2021/11/30 08:47:40;;;;;;;6.38;5.22;;;1.10;99.90;;;;;;5110966;27;20253;-82
2021/11/30 08:50:09;;;;;;;10.73;7.00;;;;;;;;;;5110553;27;20203;-81
2021/11/30 08:52:36;;;;;;;5.93;3.78;;;;;;;;;;5109839;28;20206;-81
2021/11/30 08:55:06;;;;;;;5.38;4.88;;;1.40;99.90;;;;;;5127397;27;20208;-81
2021/11/30 08:57:34;;;;;;;2.35;2.15;;;;;;;;;;5127755;27;20193;-81
2021/11/30 09:00:02;;;;;;;9.05;6.00;;;;;;;;;;5122874;27;20198;-81
2021/11/30 09:02:30;;;;;;;4.13;2.97;;;;;;;;;;5108361;28;20247;-82
2021/11/30 09:04:57;;;;;;;3.42;2.88;;;;;;;;;;5111972;28;20201;-82
2021/11/30 09:07:24;;;;;;;2.55;2.10;;;;;;;;;;5127674;28;20302;-81
2021/11/30 09:09:52;;;;;;;2.67;2.40;;;;;;;;;;5109373;27;20281;-81
2021/11/30 09:12:20;;;;;;;3.35;3.10;;;;;;;;;;5124574;28;20277;-81
2021/11/30 09:14:48;;;;;;;3.80;3.45;;;;;;;;;;5121580;28;20705;-81
2021/11/30 09:17:17;;;;;;;2.35;2.13;;;;;;;;;;5126778;27;20205;-81
2021/11/30 09:19:44;;;;;;;3.22;2.70;;;;;;;;;;5115444;27;20567;-82
2021/11/30 09:22:11;;;;;;;5.07;4.50;;;;;;;;;;5127204;27;20190;-82
2021/11/30 09:24:38;;;;;;;2.47;2.10;;;;;;;;;;5127509;27;20561;-82
2021/11/30 09:27:06;;;;;;;2.92;2.05;;;;;;;;;;5127454;27;20221;-82
2021/11/30 09:29:34;;;;;;;2.90;2.67;;;;;;;;;;5126796;27;20197;-81
2021/11/30 09:32:03;;;;;;;8.25;3.40;;;;;;;;;;5121381;27;20197;-81
2021/11/30 09:34:30;;;;;;;3.35;2.10;;;;;;;;;;5125084;27;20229;-81
2021/11/30 09:36:57;;;;;;;2.88;2.28;;;;;;;;;;5125371;28;20198;-81
2021/11/30 09:39:25;;;;;;;8.55;4.50;;;;;;;;;;5125371;28;20216;-81
2021/11/30 09:41:52;;;;;;;3.30;2.25;;;;;;;;;;5125156;28;20207;-81
2021/11/30 09:44:20;;;;;;;1.95;1.85;;;;;;;;;;5123989;28;20197;-81
2021/11/30 09:46:49;;;;;;;7.70;3.15;;;;;;;;;;5123129;28;20304;-82
2021/11/30 09:49:16;;;;;;;5.82;2.30;;;;;;;;;;5127289;28;20197;-81
2021/11/30 09:51:43;;;;;;;1.40;1.30;;;;;;;;;;5127327;28;20205;-81
2021/11/30 09:54:11;;;;;;;2.50;2.10;;;;;;;;;;5126984;28;20194;-81
2021/11/30 09:56:38;;;;;;;3.97;3.33;;;;;;;;;;5123235;28;20187;-81
2021/11/30 09:59:05;;;;;;;7.45;2.50;;;;;;;;;;5115592;28;20940;-81
2021/11/30 10:01:33;;;;;;;2.47;2.30;;;;;;;;;;5120213;27;20202;-81
2021/11/30 10:04:03;;;;;;;2.42;2.00;;;;;;;;;;5130953;27;20216;-81
2021/11/30 10:06:30;;;;;;;3.42;3.22;;;;;;;;;;5131289;27;20598;-80
2021/11/30 10:08:57;;;;;;;8.07;2.17;;;;;;;;;;5130832;27;20239;-81
2021/11/30 10:11:34;;;;;;;5.18;2.13;;;2.00;99.90;;;;;;5128913;27;20202;-81
2021/11/30 10:14:19;;;;;;;1.38;1.10;;;2.00;99.90;;;;;;5125769;27;20564;-82
2021/11/30 10:17:01;;;;;;;1.90;1.80;;;;;;;;;;5129608;27;20225;-81
2021/11/30 10:19:32;;;;;;;3.75;1.90;;;;;;;;;;5116884;27;20259;-81
2021/11/30 10:22:00;;;;;;;1.50;1.40;;;;;;;;;;5130579;27;20201;-81
2021/11/30 10:24:27;;;;;;;1.60;1.50;;;;;;;;;;5128382;27;20264;-82
2021/11/30 10:26:56;;;;;;;1.48;1.38;;;;;;;;;;5131222;27;20217;-81
2021/11/30 10:29:23;;;;;;;1.80;1.58;;;;;;;;;;5128746;27;20251;-81
2021/11/30 10:31:52;;;;;;;1.30;1.17;;;2.00;99.90;;;;;;5129905;27;20202;-81
2021/11/30 10:34:22;;;;;;;0.88;0.85;;;2.00;99.90;;;;;;5127156;27;20205;-81
2021/11/30 10:36:53;;;;;;;1.00;0.90;;;;;;;;;;5127266;27;20284;-81
2021/11/30 10:39:21;;;;;;;1.92;1.30;;;;;;;;;;5129701;27;20229;-81
2021/11/30 10:41:49;;;;;;;3.40;1.40;;;;;;;;;;5129259;27;20326;-81
2021/11/30 10:44:17;;;;;;;2.75;1.27;;;;;;;;;;5129554;27;20201;-81
2021/11/30 10:46:44;;;;;;;0.80;0.80;;;;;;;;;;5127955;27;20585;-81
2021/11/30 10:49:11;;;;;;;0.80;0.80;;;;;;;;;;5120682;27;20186;-81
2021/11/30 10:51:44;;;;;;;1.77;1.50;;;1.80;99.90;;;;;;5130561;27;20206;-82
2021/11/30 10:54:12;;;;;;;2.70;1.55;;;1.90;99.90;;;;;;5130303;27;20216;-81
2021/11/30 10:56:41;;;;;;;1.48;1.38;;;;;;;;;;5126326;27;20200;-81
2021/11/30 10:59:08;;;;;;;1.85;1.40;;;;;;;;;;5123043;27;20225;-81
2021/11/30 11:01:42;;;;;;;1.67;1.20;;;1.70;99.90;;;;;;5130011;27;20204;-81
2021/11/30 11:04:12;;;;;;;2.10;1.88;;;2.00;99.90;;;;;;5126356;27;20256;-81
2021/11/30 11:06:40;;;;;;;2.03;1.70;;;2.00;99.90;;;;;;5130199;27;20655;-82
2021/11/30 11:09:08;;;;;;;1.58;1.13;;;2.10;99.90;;;;;;5129050;27;20607;-81
2021/11/30 11:11:38;;;;;;;1.45;1.35;;;2.00;99.90;;;;;;5129415;27;20213;-81
2021/11/30 11:14:20;;;;;;;6.95;1.58;;;2.00;99.90;;;;;;5119086;27;20214;-82
2021/11/30 11:16:51;;;;;;;1.45;1.33;;;2.00;99.90;;;;;;5129530;27;20206;-82
2021/11/30 11:19:19;;;;;;;1.30;1.20;;;;;;;;;;5123103;27;20199;-81
2021/11/30 11:21:47;;;;;;;1.17;0.93;;;2.10;99.90;;;;;;5129143;27;20291;-82
2021/11/30 11:24:19;;;;;;;2.60;1.20;;;2.00;99.90;;;;;;5120712;27;20201;-81
2021/11/30 11:26:49;;;;;;;1.42;0.75;;;2.00;99.90;;;;;;5130187;27;20675;-81
2021/11/30 11:29:18;;;;;;;0.93;0.93;;;2.00;99.90;;;;;;5122415;27;20315;-81
2021/11/30 11:31:48;;;;;;;0.90;0.90;;;2.10;99.90;;;;;;5129174;27;20206;-81
2021/11/30 11:34:17;;;;;;;1.35;1.25;;;2.20;99.90;;;;;;5115577;27;20252;-82
2021/11/30 11:36:45;;;;;;;0.82;0.70;;;;;;;;;;5129232;27;20206;-81
2021/11/30 11:39:14;;;;;;;0.93;0.80;;;;;;;;;;5128021;27;20198;-81
2021/11/30 11:41:41;;;;;;;1.10;1.00;;;;;;;;;;5129316;27;20539;-81
2021/11/30 11:44:10;;;;;;;0.73;0.73;;;2.00;99.90;;;;;;5128058;27;20259;-81
2021/11/30 11:46:38;;;;;;;0.60;0.60;;;;;;;;;;5129550;27;20197;-81
2021/11/30 11:49:07;;;;;;;1.40;1.30;;;2.10;99.90;;;;;;5119402;27;20366;-81
2021/11/30 11:51:37;;;;;;;1.20;1.05;;;2.20;99.90;;;;;;5129031;27;20197;-82
2021/11/30 11:54:05;;;;;;;1.05;1.02;;;2.30;99.90;;;;;;5126821;27;20194;-82
2021/11/30 11:56:34;;;;;;;1.40;1.30;;;;;;;;;;5115788;27;20724;-82
2021/11/30 11:59:17;;;;;;;0.80;0.80;;;;;;;;;;5128197;27;20230;-81
2021/11/30 12:01:49;;;;;;;0.70;0.70;;;2.30;99.90;;;;;;5128291;27;20201;-81
2021/11/30 12:04:17;;;;;;;2.38;1.00;;;2.20;99.90;;;;;;5124713;27;22546;-81
2021/11/30 12:06:53;;;;;;;1.58;1.48;;;2.30;99.90;;;;;;5128292;27;20228;-82
2021/11/30 12:09:24;;;;;;;1.60;1.50;;;2.20;99.90;;;;;;5129982;27;20213;-81
2021/11/30 12:11:53;;;;;;;1.27;1.00;;;2.20;99.90;;;;;;5128607;27;20217;-82
2021/11/30 12:14:24;;;;;;;0.57;0.57;;;;;;;;;;5129236;27;20199;-81
2021/11/30 12:17:19;;;;;;;1.00;1.00;;;2.20;99.90;;;;;;5128457;27;20201;-82
2021/11/30 12:19:51;;;;;;;1.05;1.05;;;2.20;99.90;;;;;;5086831;27;20240;-81
2021/11/30 12:22:43;;;;;;;1.02;0.90;;;2.30;99.90;;;;;;5127333;27;20198;-82
2021/11/30 12:25:22;;;;;;;2.47;1.20;;;;;;;;;;5121168;27;20204;-82
2021/11/30 12:27:49;;;;;;;1.25;1.15;;;;;;;;;;5128646;27;20266;-81
2021/11/30 12:30:45;;;;;;;2.05;1.95;;;2.30;99.90;;;;;;5127929;27;20199;-81
2021/11/30 12:33:22;;;;;;;1.67;1.05;;;2.30;99.90;;;;;;5120181;27;20202;-82
2021/11/30 12:35:57;;;;;;;0.70;0.70;;;2.10;99.90;;;;;;5128148;27;20255;-81
2021/11/30 12:38:32;;;;;;;1.15;0.85;;;2.20;99.90;;;;;;5129091;27;20670;-82
2021/11/30 12:41:01;;;;;;;1.00;0.98;;;2.20;99.90;;;;;;5127914;27;20225;-82
2021/11/30 12:43:32;;;;;;;1.35;0.88;;;2.10;99.90;;;;;;5127588;27;20279;-81
2021/11/30 12:46:03;;;;;;;1.27;1.15;;;0.90;99.90;;;;;;5128153;27;20271;-81
2021/11/30 12:48:41;;;;;;;1.50;1.40;;;2.10;99.90;;;;;;5133394;27;20230;-82
2021/11/30 12:51:25;;;;;;;1.00;0.90;;;2.10;99.90;;;;;;5127817;27;20262;-82
2021/11/30 12:53:53;;;;;;;0.80;0.80;;;2.10;99.90;;;;;;5125252;27;20230;-82
2021/11/30 12:56:47;;;;;;;0.90;0.90;;;2.10;99.90;;;;;;5129053;27;20588;-82
2021/11/30 12:59:15;;;;;;;0.80;0.80;;;1.70;99.90;;;;;;5128695;27;20326;-82
2021/11/30 13:01:43;;;;;;;0.77;0.77;;;1.90;99.90;;;;;;5128282;27;20202;-81
2021/11/30 13:04:29;;;;;;;1.08;0.98;;;2.00;99.90;;;;;;5128722;27;20213;-83
2021/11/30 13:07:07;;;;;;;0.93;0.93;;;1.80;99.90;;;;;;5141696;27;20248;-83
2021/11/30 13:09:39;;;;;;;0.75;0.60;;;1.70;99.90;;;;;;5129604;28;20228;-83
2021/11/30 13:12:07;;;;;;;0.75;0.75;;;;;;;;;;5128441;28;20198;-83
2021/11/30 13:14:36;;;;;;;3.35;2.88;;;1.80;99.90;;;;;;5128965;28;20238;-83
2021/11/30 13:17:05;;;;;;;3.03;2.55;;;1.90;99.90;;;;;;5133719;27;20250;-83
2021/11/30 13:19:34;;;;;;;3.60;2.90;;;1.60;99.90;;;;;;5126654;27;20631;-84
2021/11/30 13:22:04;;;;;;;4.97;2.15;;;1.90;99.90;;;;;;5126469;28;20212;-82
2021/11/30 13:24:36;;;;;;;1.90;1.80;;;1.90;99.90;;;;;;5129164;28;20259;-82
2021/11/30 13:27:11;;;;;;;1.40;1.30;;;1.90;99.90;;;;;;5128833;28;20201;-83
2021/11/30 13:29:39;;;;;;;2.40;2.20;;;;;;;;;;5129288;28;20293;-83
2021/11/30 13:32:08;;;;;;;4.30;3.90;;;2.00;99.90;;;;;;5128416;28;20189;-84
2021/11/30 13:34:35;;;;;;;3.03;2.72;;;;;;;;;;5128740;27;20209;-82
2021/11/30 13:37:12;;;;;;;2.25;2.15;;;;;;;;;;5132928;27;20201;-83
2021/11/30 13:39:45;;;;;;;2.50;1.30;;;2.00;99.90;;;;;;5131805;27;20192;-83
2021/11/30 13:42:12;;;;;;;1.80;1.38;;;;;;;;;;5132555;27;20212;-83
2021/11/30 13:44:40;;;;;;;2.72;2.40;;;;;;;;;;5132267;27;20209;-83
2021/11/30 13:47:11;;;;;;;2.72;1.42;;;;;;;;;;5133007;27;20205;-82
2021/11/30 13:49:42;;;;;;;3.08;2.78;;;1.90;99.90;;;;;;5132647;27;20230;-83
2021/11/30 13:52:20;;;;;;;3.83;2.85;;;;;;;;;;5131370;27;20201;-83
2021/11/30 13:54:51;;;;;;;0.95;0.80;;;;;;;;;;5132961;27;20736;-83
2021/11/30 13:57:21;;;;;;;1.48;1.10;;;2.00;99.90;;;;;;5133025;27;20248;-83
2021/11/30 13:59:53;;;;;;;1.40;1.30;;;;;;;;;;5131832;27;20198;-84
2021/11/30 14:02:33;;;;;;;1.55;1.33;;;;;;;;;;5132080;27;20201;-82
2021/11/30 14:05:01;;;;;;;1.73;1.63;;;;;;;;;;5132255;27;20869;-83
2021/11/30 14:07:30;;;;;;;1.00;1.00;;;;;;;;;;5126049;27;20190;-83
2021/11/30 14:10:00;;;;;;;1.50;1.40;;;2.20;99.90;;;;;;5138361;27;20281;-84
2021/11/30 14:12:28;;;;;;;1.20;1.10;;;;;;;;;;5140754;27;20204;-82
2021/11/30 14:14:56;;;;;;;2.60;0.82;;;;;;;;;;5142204;27;20268;-80